createdAt,value
2017-11-03T00:00:06.960Z,100289.27
2017-11-03T00:01:12.725Z,100289.75
2017-11-03T00:02:18.492Z,100292.15
2017-11-03T00:03:24.521Z,100293.34
2017-11-03T00:04:30.285Z,100295.68
2017-11-03T00:05:36.070Z,100293.59
2017-11-03T00:06:42.597Z,100294.41
2017-11-03T00:07:48.361Z,100295.52
2017-11-03T00:08:54.887Z,100291.57
2017-11-03T00:10:00.653Z,100297.61
2017-11-03T00:11:06.440Z,100295.02
2017-11-03T00:12:12.212Z,100304.11
2017-11-03T00:13:17.969Z,100298.67
2017-11-03T00:14:23.732Z,100302.89
2017-11-03T00:15:30.264Z,100305.73
2017-11-03T00:16:36.057Z,100301.02
2017-11-03T00:17:41.620Z,100300.72
2017-11-03T00:18:47.390Z,100301.91
2017-11-03T00:19:53.148Z,100303.78
2017-11-03T00:20:59.674Z,100296.98
2017-11-03T00:22:05.464Z,100297.59
2017-11-03T00:23:11.989Z,100292.86
2017-11-03T00:24:17.750Z,100296.05
2017-11-03T00:25:24.273Z,100297.66
2017-11-03T00:26:30.052Z,100302.38
2017-11-03T00:27:35.633Z,100305.64
2017-11-03T00:28:41.396Z,100305.17
2017-11-03T00:29:47.153Z,100311.55
2017-11-03T00:30:52.923Z,100309.85
2017-11-03T00:31:59.459Z,100310.95
2017-11-03T00:33:05.249Z,100317.55
2017-11-03T00:34:11.013Z,100310.06
2017-11-03T00:35:16.774Z,100308.53
2017-11-03T00:36:22.545Z,100307.91
2017-11-03T00:37:28.392Z,100316.66
2017-11-03T00:38:34.942Z,100312.27
2017-11-03T00:39:41.465Z,100315.63
2017-11-03T00:40:47.240Z,100315.88
2017-11-03T00:41:53.009Z,100310.65
2017-11-03T00:42:58.764Z,100316.42
2017-11-03T00:44:04.606Z,100311.64
2017-11-03T00:45:10.365Z,100315.89
2017-11-03T00:46:16.133Z,100311.43
2017-11-03T00:47:21.904Z,100320.95
2017-11-03T00:48:27.665Z,100322.69
2017-11-03T00:49:34.232Z,100321.58
2017-11-03T00:50:39.775Z,100329.98
2017-11-03T00:51:45.533Z,100323.53
2017-11-03T00:52:51.307Z,100320.95
2017-11-03T00:53:57.075Z,100320.05
2017-11-03T00:55:02.880Z,100326.09
2017-11-03T00:56:08.653Z,100320.52
2017-11-03T00:57:14.400Z,100316.06
2017-11-03T00:58:20.164Z,100321.20
2017-11-03T00:59:26.700Z,100323.41
2017-11-03T01:00:33.265Z,100326.77
2017-11-03T01:01:39.016Z,100322.05
2017-11-03T01:02:45.553Z,100318.86
2017-11-03T01:03:51.308Z,100322.09
2017-11-03T01:04:57.069Z,100325.61
2017-11-03T01:06:03.613Z,100323.03
2017-11-03T01:07:10.141Z,100325.44
2017-11-03T01:08:15.906Z,100322.54
2017-11-03T01:09:21.316Z,100326.62
2017-11-03T01:10:27.077Z,100324.63
2017-11-03T01:11:32.862Z,100322.67
2017-11-03T01:12:38.623Z,100319.31
2017-11-03T01:13:44.378Z,100319.61
2017-11-03T01:14:50.146Z,100322.28
2017-11-03T01:15:55.933Z,100321.27
2017-11-03T01:17:01.729Z,100321.83
2017-11-03T01:18:08.266Z,100318.95
2017-11-03T01:19:14.035Z,100323.03
2017-11-03T01:20:19.813Z,100318.95
2017-11-03T01:21:25.577Z,100315.02
2017-11-03T01:22:31.388Z,100320.42
2017-11-03T01:23:37.913Z,100316.13
2017-11-03T01:24:43.677Z,100315.92
2017-11-03T01:25:50.218Z,100315.37
2017-11-03T01:26:57.482Z,100320.45
2017-11-03T01:28:03.285Z,100324.46
2017-11-03T01:29:09.045Z,100317.19
2017-11-03T01:30:14.800Z,100326.55
2017-11-03T01:31:20.012Z,100322.80
2017-11-03T01:32:25.524Z,100323.27
2017-11-03T01:33:31.323Z,100324.33
2017-11-03T01:34:37.088Z,100332.50
2017-11-03T01:35:43.607Z,100331.09
2017-11-03T01:36:49.364Z,100336.19
2017-11-03T01:37:55.130Z,100336.61
2017-11-03T01:39:01.685Z,100330.70
2017-11-03T01:40:07.460Z,100335.00
2017-11-03T01:41:13.217Z,100335.00
2017-11-03T01:42:18.986Z,100336.45
2017-11-03T01:43:24.670Z,100340.53
2017-11-03T01:44:30.528Z,100336.20
2017-11-03T01:45:36.293Z,100339.56
2017-11-03T01:46:42.049Z,100337.39
2017-11-03T01:47:47.459Z,100343.64
2017-11-03T01:48:53.216Z,100341.60
2017-11-03T01:49:59.003Z,100337.44
2017-11-03T01:51:05.537Z,100339.90
2017-11-03T01:52:11.288Z,100339.72
2017-11-03T01:53:17.068Z,100340.19
2017-11-03T01:54:22.812Z,100344.86
2017-11-03T01:55:28.598Z,100337.85
2017-11-03T01:56:34.017Z,100336.03
2017-11-03T01:57:39.781Z,100339.38
2017-11-03T01:58:45.548Z,100340.23
2017-11-03T01:59:52.084Z,100341.88
2017-11-03T02:00:57.181Z,100343.78
2017-11-03T02:02:02.950Z,100347.48
2017-11-03T02:04:14.845Z,100345.45
2017-11-03T02:05:22.112Z,100344.12
2017-11-03T02:06:27.898Z,100351.30
2017-11-03T02:07:33.660Z,100345.95
2017-11-03T02:08:39.415Z,100346.11
2017-11-03T02:09:45.186Z,100349.56
2017-11-03T02:10:51.712Z,100346.64
2017-11-03T02:11:57.489Z,100345.82
2017-11-03T02:13:03.249Z,100348.11
2017-11-03T02:14:09.776Z,100343.13
2017-11-03T02:15:15.537Z,100346.75
2017-11-03T02:16:21.291Z,100344.40
2017-11-03T02:17:27.845Z,100345.92
2017-11-03T02:18:33.397Z,100343.97
2017-11-03T02:19:39.160Z,100349.96
2017-11-03T02:20:43.984Z,100349.11
2017-11-03T02:21:49.122Z,100352.73
2017-11-03T02:22:54.589Z,100352.38
2017-11-03T02:24:00.041Z,100349.24
2017-11-03T02:25:06.569Z,100353.23
2017-11-03T02:26:12.352Z,100354.78
2017-11-03T02:27:18.892Z,100353.47
2017-11-03T02:28:24.681Z,100355.89
2017-11-03T02:29:30.448Z,100362.27
2017-11-03T02:30:35.893Z,100357.41
2017-11-03T02:31:41.649Z,100353.33
2017-11-03T02:32:47.408Z,100355.67
2017-11-03T02:33:53.968Z,100356.47
2017-11-03T02:35:00.608Z,100355.28
2017-11-03T02:36:06.637Z,100356.37
2017-11-03T02:37:12.405Z,100357.40
2017-11-03T02:38:18.164Z,100361.16
2017-11-03T02:39:24.042Z,100358.66
2017-11-03T02:40:29.814Z,100358.23
2017-11-03T02:41:35.568Z,100355.31
2017-11-03T02:42:41.323Z,100360.41
2017-11-03T02:43:47.077Z,100363.10
2017-11-03T02:44:53.641Z,100363.90
2017-11-03T02:45:59.502Z,100364.62
2017-11-03T02:47:05.309Z,100368.78
2017-11-03T02:48:11.064Z,100367.55
2017-11-03T02:49:17.594Z,100364.11
2017-11-03T02:50:23.403Z,100360.89
2017-11-03T02:51:29.159Z,100354.64
2017-11-03T02:52:34.933Z,100363.39
2017-11-03T02:53:40.688Z,100360.13
2017-11-03T02:54:47.216Z,100362.50
2017-11-03T02:55:53.009Z,100363.05
2017-11-03T02:56:58.780Z,100359.99
2017-11-03T02:58:04.542Z,100356.38
2017-11-03T02:59:10.311Z,100362.89
2017-11-03T03:00:16.071Z,100361.73
2017-11-03T03:01:21.870Z,100360.13
2017-11-03T03:02:27.624Z,100358.76
2017-11-03T03:03:33.380Z,100360.37
2017-11-03T03:04:39.715Z,100357.18
2017-11-03T03:05:45.473Z,100364.11
2017-11-03T03:06:52.040Z,100355.57
2017-11-03T03:07:58.561Z,100356.63
2017-11-03T03:09:03.533Z,100363.69
2017-11-03T03:10:10.063Z,100366.03
2017-11-03T03:11:15.821Z,100361.73
2017-11-03T03:12:22.382Z,100364.80
2017-11-03T03:13:28.907Z,100363.73
2017-11-03T03:14:34.664Z,100365.01
2017-11-03T03:15:40.155Z,100366.19
2017-11-03T03:16:45.212Z,100363.13
2017-11-03T03:17:52.506Z,100362.45
2017-11-03T03:18:58.265Z,100367.56
2017-11-03T03:20:04.440Z,100370.20
2017-11-03T03:21:09.860Z,100367.98
2017-11-03T03:22:16.376Z,100366.66
2017-11-03T03:23:22.171Z,100369.55
2017-11-03T03:24:28.349Z,100370.57
2017-11-03T03:25:34.096Z,100374.40
2017-11-03T03:26:39.469Z,100375.16
2017-11-03T03:27:46.017Z,100372.86
2017-11-03T03:28:51.803Z,100374.02
2017-11-03T03:29:57.566Z,100377.30
2017-11-03T03:31:03.325Z,100379.16
2017-11-03T03:32:09.076Z,100382.56
2017-11-03T03:33:14.834Z,100388.05
2017-11-03T03:34:21.049Z,100378.91
2017-11-03T03:35:26.820Z,100390.17
2017-11-03T03:36:32.575Z,100386.36
2017-11-03T03:37:39.106Z,100384.74
2017-11-03T03:38:44.883Z,100379.34
2017-11-03T03:39:51.432Z,100384.64
2017-11-03T03:40:57.969Z,100386.30
2017-11-03T03:42:03.741Z,100381.67
2017-11-03T03:43:10.284Z,100385.12
2017-11-03T03:44:16.044Z,100387.84
2017-11-03T03:45:21.912Z,100382.27
2017-11-03T03:46:26.993Z,100388.91
2017-11-03T03:47:32.068Z,100387.20
2017-11-03T03:48:37.127Z,100386.52
2017-11-03T03:49:42.337Z,100387.47
2017-11-03T03:50:48.122Z,100386.61
2017-11-03T03:51:53.896Z,100397.11
2017-11-03T03:52:59.661Z,100390.01
2017-11-03T03:54:05.074Z,100393.92
2017-11-03T03:55:10.829Z,100399.44
2017-11-03T03:56:15.919Z,100398.38
2017-11-03T03:57:21.760Z,100397.49
2017-11-03T03:58:28.285Z,100394.38
2017-11-03T03:59:34.058Z,100400.93
2017-11-03T04:00:40.594Z,100398.77
2017-11-03T04:01:46.386Z,100404.55
2017-11-03T04:02:52.144Z,100407.05
2017-11-03T04:03:57.565Z,100400.77
2017-11-03T04:05:03.321Z,100402.17
2017-11-03T04:06:09.097Z,100407.10
2017-11-03T04:07:14.897Z,100399.92
2017-11-03T04:08:20.657Z,100401.53
2017-11-03T04:09:25.736Z,100399.23
2017-11-03T04:10:31.917Z,100402.58
2017-11-03T04:11:37.472Z,100402.45
2017-11-03T04:12:43.060Z,100406.49
2017-11-03T04:13:49.593Z,100400.98
2017-11-03T04:14:56.862Z,100411.42
2017-11-03T04:16:02.885Z,100408.23
2017-11-03T04:17:08.649Z,100409.67
2017-11-03T04:18:14.257Z,100409.16
2017-11-03T04:19:20.056Z,100409.58
2017-11-03T04:20:25.825Z,100404.53
2017-11-03T04:21:31.588Z,100406.52
2017-11-03T04:22:37.344Z,100410.90
2017-11-03T04:23:43.136Z,100408.73
2017-11-03T04:24:49.665Z,100401.68
2017-11-03T04:25:55.501Z,100402.58
2017-11-03T04:27:01.259Z,100407.47
2017-11-03T04:28:07.440Z,100406.10
2017-11-03T04:29:13.236Z,100407.25
2017-11-03T04:30:18.993Z,100407.38
2017-11-03T04:31:24.778Z,100409.45
2017-11-03T04:32:30.527Z,100406.81
2017-11-03T04:33:35.957Z,100408.69
2017-11-03T04:34:41.740Z,100418.03
2017-11-03T04:35:47.501Z,100407.94
2017-11-03T04:36:53.268Z,100416.18
2017-11-03T04:37:59.024Z,100414.64
2017-11-03T04:39:04.181Z,100416.73
2017-11-03T04:40:10.002Z,100415.15
2017-11-03T04:41:15.768Z,100418.60
2017-11-03T04:42:22.408Z,100410.53
2017-11-03T04:43:28.177Z,100415.79
2017-11-03T04:44:33.952Z,100412.09
2017-11-03T04:45:39.824Z,100419.05
2017-11-03T04:46:44.912Z,100417.34
2017-11-03T04:47:51.100Z,100415.53
2017-11-03T04:48:56.868Z,100413.31
2017-11-03T04:50:02.625Z,100421.69
2017-11-03T04:51:08.407Z,100422.03
2017-11-03T04:52:14.984Z,100412.98
2017-11-03T04:53:20.392Z,100417.66
2017-11-03T04:54:25.990Z,100416.34
2017-11-03T04:55:31.059Z,100416.39
2017-11-03T04:56:37.405Z,100420.04
2017-11-03T04:57:43.933Z,100410.14
2017-11-03T04:58:49.692Z,100412.73
2017-11-03T04:59:56.235Z,100423.56
2017-11-03T05:01:01.993Z,100417.48
2017-11-03T05:02:07.776Z,100424.79
2017-11-03T05:03:13.545Z,100422.23
2017-11-03T05:04:19.304Z,100422.88
2017-11-03T05:05:25.069Z,100421.19
2017-11-03T05:06:30.831Z,100421.31
2017-11-03T05:07:36.629Z,100418.20
2017-11-03T05:08:42.387Z,100415.55
2017-11-03T05:09:48.152Z,100407.66
2017-11-03T05:10:54.689Z,100412.22
2017-11-03T05:12:00.448Z,100418.17
2017-11-03T05:13:06.242Z,100419.99
2017-11-03T05:14:12.016Z,100421.78
2017-11-03T05:15:17.783Z,100420.24
2017-11-03T05:16:25.048Z,100423.44
2017-11-03T05:17:30.814Z,100417.62
2017-11-03T05:18:37.441Z,100420.68
2017-11-03T05:19:43.202Z,100417.06
2017-11-03T05:20:48.961Z,100416.52
2017-11-03T05:21:55.481Z,100417.91
2017-11-03T05:23:01.252Z,100427.00
2017-11-03T05:24:06.585Z,100421.44
2017-11-03T05:25:12.344Z,100423.98
2017-11-03T05:26:18.864Z,100425.73
2017-11-03T05:27:24.624Z,100429.26
2017-11-03T05:28:30.674Z,100423.44
2017-11-03T05:29:36.465Z,100426.20
2017-11-03T05:30:42.228Z,100423.56
2017-11-03T05:31:47.998Z,100424.41
2017-11-03T05:32:53.765Z,100430.95
2017-11-03T05:33:59.537Z,100423.41
2017-11-03T05:35:05.334Z,100423.69
2017-11-03T05:36:11.192Z,100421.45
2017-11-03T05:37:16.674Z,100426.92
2017-11-03T05:38:22.106Z,100430.31
2017-11-03T05:39:26.940Z,100427.37
2017-11-03T05:40:32.633Z,100430.69
2017-11-03T05:41:38.393Z,100424.55
2017-11-03T05:42:44.164Z,100425.39
2017-11-03T05:43:49.929Z,100430.24
2017-11-03T05:44:56.126Z,100426.97
2017-11-03T05:46:01.922Z,100429.80
2017-11-03T05:47:08.451Z,100422.80
2017-11-03T05:48:14.225Z,100430.64
2017-11-03T05:49:20.771Z,100426.72
2017-11-03T05:50:28.040Z,100420.16
2017-11-03T05:51:33.641Z,100429.65
2017-11-03T05:52:39.417Z,100426.07
2017-11-03T05:53:44.832Z,100430.46
2017-11-03T05:54:50.249Z,100418.98
2017-11-03T05:55:56.008Z,100437.33
2017-11-03T05:57:01.800Z,100436.68
2017-11-03T05:58:08.325Z,100436.23
2017-11-03T05:59:14.085Z,100438.11
2017-11-03T06:00:20.616Z,100442.22
2017-11-03T06:01:26.456Z,100440.67
2017-11-03T06:02:32.228Z,100434.60
2017-11-03T06:03:37.988Z,100437.77
2017-11-03T06:04:44.516Z,100443.74
2017-11-03T06:05:50.279Z,100441.47
2017-11-03T06:06:56.040Z,100444.34
2017-11-03T06:08:02.593Z,100445.86
2017-11-03T06:09:08.359Z,100449.70
2017-11-03T06:10:14.873Z,100452.56
2017-11-03T06:11:20.455Z,100450.95
2017-11-03T06:12:27.305Z,100450.83
2017-11-03T06:13:33.102Z,100452.03
2017-11-03T06:14:38.856Z,100452.69
2017-11-03T06:15:44.632Z,100452.81
2017-11-03T06:16:51.900Z,100456.72
2017-11-03T06:17:57.477Z,100458.96
2017-11-03T06:19:03.264Z,100462.02
2017-11-03T06:20:09.065Z,100464.95
2017-11-03T06:21:14.642Z,100467.81
2017-11-03T06:22:20.391Z,100469.32
2017-11-03T06:23:25.960Z,100470.52
2017-11-03T06:24:32.514Z,100472.53
2017-11-03T06:25:38.532Z,100474.38
2017-11-03T06:26:44.346Z,100476.81
2017-11-03T06:27:50.088Z,100478.75
2017-11-03T06:28:55.660Z,100477.05
2017-11-03T06:30:01.466Z,100476.70
2017-11-03T06:31:07.241Z,100475.27
2017-11-03T06:32:13.001Z,100471.80
2017-11-03T06:33:18.757Z,100474.96
2017-11-03T06:34:24.501Z,100476.81
2017-11-03T06:35:31.048Z,100480.29
2017-11-03T06:36:36.796Z,100480.76
2017-11-03T06:37:42.559Z,100475.92
2017-11-03T06:38:49.070Z,100483.81
2017-11-03T06:39:54.835Z,100487.63
2017-11-03T06:41:02.147Z,100486.67
2017-11-03T06:42:07.560Z,100489.14
2017-11-03T06:43:14.077Z,100492.97
2017-11-03T06:44:19.850Z,100488.84
2017-11-03T06:45:26.384Z,100483.00
2017-11-03T06:46:31.950Z,100486.88
2017-11-03T06:47:38.478Z,100486.22
2017-11-03T06:48:44.240Z,100488.49
2017-11-03T06:49:50.004Z,100486.20
2017-11-03T06:50:56.532Z,100480.52
2017-11-03T06:52:02.317Z,100489.06
2017-11-03T06:53:08.131Z,100495.16
2017-11-03T06:54:13.885Z,100494.91
2017-11-03T06:55:20.060Z,100503.80
2017-11-03T06:56:25.823Z,100500.11
2017-11-03T06:57:31.604Z,100504.44
2017-11-03T06:58:37.364Z,100498.15
2017-11-03T06:59:43.909Z,100510.20
2017-11-03T07:00:49.666Z,100506.52
2017-11-03T07:01:56.183Z,100509.30
2017-11-03T07:03:01.974Z,100504.58
2017-11-03T07:04:07.744Z,100507.87
2017-11-03T07:05:13.492Z,100512.43
2017-11-03T07:06:19.258Z,100512.06
2017-11-03T07:07:25.023Z,100509.19
2017-11-03T07:08:30.818Z,100509.30
2017-11-03T07:09:36.583Z,100507.44
2017-11-03T07:10:42.353Z,100511.34
2017-11-03T07:11:48.883Z,100507.09
2017-11-03T07:12:54.643Z,100507.65
2017-11-03T07:14:00.524Z,100500.75
2017-11-03T07:15:05.940Z,100505.77
2017-11-03T07:16:12.484Z,100511.36
2017-11-03T07:17:19.010Z,100502.95
2017-11-03T07:18:24.778Z,100503.75
2017-11-03T07:19:30.624Z,100509.39
2017-11-03T07:20:36.060Z,100507.22
2017-11-03T07:21:41.824Z,100511.78
2017-11-03T07:22:47.606Z,100507.87
2017-11-03T07:23:54.130Z,100507.28
2017-11-03T07:24:59.921Z,100510.14
2017-11-03T07:26:05.676Z,100512.47
2017-11-03T07:27:11.451Z,100512.88
2017-11-03T07:28:17.981Z,100512.03
2017-11-03T07:29:23.741Z,100518.81
2017-11-03T07:30:29.517Z,100519.12
2017-11-03T07:31:35.275Z,100520.23
2017-11-03T07:32:41.046Z,100516.04
2017-11-03T07:33:46.804Z,100522.14
2017-11-03T07:34:53.332Z,100520.38
2017-11-03T07:35:59.120Z,100523.03
2017-11-03T07:37:04.891Z,100523.80
2017-11-03T07:38:10.652Z,100522.56
2017-11-03T07:39:16.412Z,100528.68
2017-11-03T07:40:22.285Z,100525.40
2017-11-03T07:41:28.629Z,100527.94
2017-11-03T07:42:35.156Z,100529.25
2017-11-03T07:43:40.921Z,100527.22
2017-11-03T07:44:47.471Z,100529.54
2017-11-03T07:45:53.226Z,100527.88
2017-11-03T07:46:59.027Z,100528.78
2017-11-03T07:48:04.800Z,100531.14
2017-11-03T07:49:10.812Z,100531.33
2017-11-03T07:50:16.577Z,100536.31
2017-11-03T07:51:22.344Z,100537.91
2017-11-03T07:52:28.896Z,100537.06
2017-11-03T07:53:34.476Z,100531.58
2017-11-03T07:54:40.265Z,100530.22
2017-11-03T07:55:46.031Z,100527.78
2017-11-03T07:56:52.562Z,100531.91
2017-11-03T07:57:58.345Z,100532.31
2017-11-03T07:59:04.106Z,100528.67
2017-11-03T08:00:09.673Z,100531.66
2017-11-03T08:01:15.436Z,100538.58
2017-11-03T08:02:21.207Z,100536.63
2017-11-03T08:03:26.653Z,100534.56
2017-11-03T08:04:32.414Z,100531.53
2017-11-03T08:05:38.177Z,100533.53
2017-11-03T08:06:43.951Z,100537.80
2017-11-03T08:07:50.477Z,100527.93
2017-11-03T08:08:56.269Z,100530.42
2017-11-03T08:10:02.029Z,100531.74
2017-11-03T08:11:07.798Z,100532.44
2017-11-03T08:12:13.560Z,100530.91
2017-11-03T08:13:19.321Z,100525.21
2017-11-03T08:14:25.098Z,100528.47
2017-11-03T08:15:30.867Z,100535.77
2017-11-03T08:16:36.679Z,100533.54
2017-11-03T08:17:42.433Z,100533.62
2017-11-03T08:18:48.184Z,100537.84
2017-11-03T08:19:53.981Z,100536.45
2017-11-03T08:21:00.492Z,100527.89
2017-11-03T08:22:06.257Z,100528.28
2017-11-03T08:23:12.007Z,100520.84
2017-11-03T08:24:17.769Z,100526.22
2017-11-03T08:25:24.323Z,100526.59
2017-11-03T08:26:30.904Z,100526.69
2017-11-03T08:27:36.676Z,100524.59
2017-11-03T08:28:42.443Z,100529.73
2017-11-03T08:29:48.231Z,100522.86
2017-11-03T08:30:54.013Z,100527.05
2017-11-03T08:31:59.776Z,100526.66
2017-11-03T08:33:05.197Z,100518.20
2017-11-03T08:34:11.744Z,100525.56
2017-11-03T08:35:17.501Z,100520.86
2017-11-03T08:36:23.301Z,100527.33
2017-11-03T08:37:29.072Z,100528.53
2017-11-03T08:38:34.841Z,100529.13
2017-11-03T08:39:41.372Z,100528.77
2017-11-03T08:40:47.132Z,100525.88
2017-11-03T08:41:53.689Z,100527.63
2017-11-03T08:43:00.972Z,100530.27
2017-11-03T08:44:06.736Z,100521.05
2017-11-03T08:45:13.266Z,100526.47
2017-11-03T08:46:19.808Z,100525.05
2017-11-03T08:47:25.597Z,100522.13
2017-11-03T08:48:32.137Z,100524.95
2017-11-03T08:49:37.913Z,100521.27
2017-11-03T08:50:43.661Z,100517.79
2017-11-03T08:51:49.442Z,100517.13
2017-11-03T08:52:56.263Z,100523.52
2017-11-03T08:54:02.023Z,100516.00
2017-11-03T08:55:07.804Z,100512.38
2017-11-03T08:56:12.936Z,100507.57
2017-11-03T08:57:18.689Z,100510.05
2017-11-03T08:58:25.248Z,100515.21
2017-11-03T08:59:30.309Z,100514.18
2017-11-03T09:00:36.073Z,100517.16
2017-11-03T09:01:41.837Z,100517.58
2017-11-03T09:02:47.608Z,100515.75
2017-11-03T09:03:54.195Z,100517.86
2017-11-03T09:04:59.963Z,100513.61
2017-11-03T09:06:06.749Z,100516.83
2017-11-03T09:07:12.168Z,100516.56
2017-11-03T09:08:17.909Z,100516.34
2017-11-03T09:09:23.697Z,100520.50
2017-11-03T09:10:29.460Z,100522.84
2017-11-03T09:11:35.239Z,100515.64
2017-11-03T09:12:42.030Z,100514.63
2017-11-03T09:13:47.789Z,100513.44
2017-11-03T09:14:54.357Z,100516.83
2017-11-03T09:16:00.117Z,100515.13
2017-11-03T09:17:05.692Z,100514.22
2017-11-03T09:18:11.468Z,100516.25
2017-11-03T09:19:17.999Z,100518.17
2017-11-03T09:20:23.192Z,100522.25
2017-11-03T09:21:28.255Z,100521.73
2017-11-03T09:22:33.341Z,100522.11
2017-11-03T09:23:38.408Z,100531.69
2017-11-03T09:24:43.625Z,100526.03
2017-11-03T09:25:48.749Z,100529.88
2017-11-03T09:26:54.514Z,100530.08
2017-11-03T09:28:00.277Z,100525.64
2017-11-03T09:29:06.036Z,100528.63
2017-11-03T09:30:11.794Z,100524.58
2017-11-03T09:31:17.589Z,100527.98
2017-11-03T09:32:24.142Z,100521.14
2017-11-03T09:33:29.897Z,100527.66
2017-11-03T09:34:36.128Z,100522.88
2017-11-03T09:35:41.886Z,100522.64
2017-11-03T09:36:48.442Z,100525.91
2017-11-03T09:37:54.976Z,100522.05
2017-11-03T09:39:02.267Z,100529.70
2017-11-03T09:40:08.156Z,100529.94
2017-11-03T09:41:13.915Z,100527.56
2017-11-03T09:42:19.705Z,100524.52
2017-11-03T09:43:26.247Z,100528.72
2017-11-03T09:44:32.031Z,100526.61
2017-11-03T09:45:38.208Z,100531.55
2017-11-03T09:46:43.977Z,100525.41
2017-11-03T09:47:49.770Z,100523.05
2017-11-03T09:48:55.536Z,100526.48
2017-11-03T09:50:01.311Z,100528.20
2017-11-03T09:51:06.719Z,100523.94
2017-11-03T09:52:13.265Z,100528.92
2017-11-03T09:53:19.093Z,100524.08
2017-11-03T09:54:24.863Z,100526.41
2017-11-03T09:55:30.683Z,100529.07
2017-11-03T09:56:36.443Z,100518.49
2017-11-03T09:57:42.213Z,100522.02
2017-11-03T09:58:48.019Z,100529.79
2017-11-03T09:59:53.811Z,100528.89
2017-11-03T10:00:59.997Z,100536.27
2017-11-03T10:02:05.795Z,100534.34
2017-11-03T10:03:11.547Z,100532.67
2017-11-03T10:04:18.113Z,100535.17
2017-11-03T10:05:24.656Z,100528.43
2017-11-03T10:06:31.928Z,100530.01
2017-11-03T10:07:37.703Z,100526.69
2017-11-03T10:08:43.468Z,100528.67
2017-11-03T10:09:50.247Z,100526.73
2017-11-03T10:10:56.018Z,100523.52
2017-11-03T10:12:01.800Z,100524.20
2017-11-03T10:13:07.222Z,100521.06
2017-11-03T10:14:13.604Z,100529.93
2017-11-03T10:15:20.168Z,100524.87
2017-11-03T10:16:26.688Z,100531.67
2017-11-03T10:17:32.459Z,100531.28
2017-11-03T10:18:38.987Z,100534.04
2017-11-03T10:19:44.796Z,100526.13
2017-11-03T10:20:50.419Z,100528.28
2017-11-03T10:21:56.953Z,100532.09
2017-11-03T10:23:02.728Z,100531.84
2017-11-03T10:24:07.958Z,100527.59
2017-11-03T10:25:12.883Z,100529.34
2017-11-03T10:26:18.668Z,100520.97
2017-11-03T10:27:25.201Z,100523.30
2017-11-03T10:28:30.959Z,100522.95
2017-11-03T10:29:36.713Z,100518.87
2017-11-03T10:30:42.485Z,100516.48
2017-11-03T10:31:49.044Z,100517.95
2017-11-03T10:32:55.577Z,100517.38
2017-11-03T10:34:00.989Z,100517.47
2017-11-03T10:35:06.758Z,100518.86
2017-11-03T10:36:12.508Z,100517.30
2017-11-03T10:37:18.594Z,100517.01
2017-11-03T10:38:24.362Z,100518.19
2017-11-03T10:39:29.869Z,100518.70
2017-11-03T10:40:35.634Z,100513.70
2017-11-03T10:41:41.408Z,100514.72
2017-11-03T10:42:47.197Z,100513.45
2017-11-03T10:43:52.960Z,100506.50
2017-11-03T10:44:58.724Z,100509.80
2017-11-03T10:46:04.235Z,100506.41
2017-11-03T10:47:09.993Z,100502.13
2017-11-03T10:48:15.784Z,100511.13
2017-11-03T10:49:21.553Z,100501.47
2017-11-03T10:50:26.636Z,100501.63
2017-11-03T10:51:32.473Z,100510.03
2017-11-03T10:52:38.705Z,100511.37
2017-11-03T10:53:43.826Z,100512.10
2017-11-03T10:54:49.587Z,100509.85
2017-11-03T10:55:56.878Z,100512.10
2017-11-03T10:57:03.419Z,100510.83
2017-11-03T10:58:09.255Z,100511.82
2017-11-03T10:59:15.040Z,100509.05
2017-11-03T11:00:20.877Z,100508.90
2017-11-03T11:01:25.955Z,100507.39
2017-11-03T11:02:31.361Z,100507.66
2017-11-03T11:03:36.781Z,100506.67
2017-11-03T11:04:42.569Z,100499.22
2017-11-03T11:05:48.333Z,100497.16
2017-11-03T11:06:54.105Z,100499.98
2017-11-03T11:07:59.963Z,100502.46
2017-11-03T11:09:05.062Z,100502.09
2017-11-03T11:10:11.616Z,100499.89
2017-11-03T11:11:18.151Z,100504.16
2017-11-03T11:12:24.678Z,100502.39
2017-11-03T11:13:30.097Z,100500.70
2017-11-03T11:14:35.264Z,100496.27
2017-11-03T11:15:41.064Z,100495.92
2017-11-03T11:16:46.838Z,100499.22
2017-11-03T11:17:52.602Z,100497.06
2017-11-03T11:18:59.129Z,100500.00
2017-11-03T11:20:04.556Z,100495.28
2017-11-03T11:21:10.000Z,100490.38
2017-11-03T11:22:15.766Z,100490.46
2017-11-03T11:23:23.032Z,100492.58
2017-11-03T11:24:28.528Z,100491.55
2017-11-03T11:25:33.961Z,100493.91
2017-11-03T11:26:39.754Z,100491.36
2017-11-03T11:27:45.510Z,100484.98
2017-11-03T11:28:51.544Z,100485.19
2017-11-03T11:29:57.313Z,100483.77
2017-11-03T11:31:03.848Z,100485.19
2017-11-03T11:32:09.639Z,100485.18
2017-11-03T11:33:15.053Z,100483.56
2017-11-03T11:34:21.580Z,100483.84
2017-11-03T11:35:26.657Z,100483.08
2017-11-03T11:36:31.750Z,100483.80
2017-11-03T11:37:37.970Z,100483.17
2017-11-03T11:38:43.039Z,100476.05
2017-11-03T11:39:48.909Z,100480.41
2017-11-03T11:40:53.981Z,100478.33
2017-11-03T11:41:59.436Z,100481.80
2017-11-03T11:43:05.679Z,100483.05
2017-11-03T11:44:11.692Z,100479.99
2017-11-03T11:45:17.108Z,100480.37
2017-11-03T11:46:22.181Z,100480.37
2017-11-03T11:47:27.260Z,100477.56
2017-11-03T11:48:33.048Z,100475.30
2017-11-03T11:49:38.464Z,100479.32
2017-11-03T11:50:43.536Z,100477.93
2017-11-03T11:51:49.732Z,100473.35
2017-11-03T11:52:55.152Z,100478.02
2017-11-03T11:54:00.593Z,100476.04
2017-11-03T11:55:06.030Z,100474.17
2017-11-03T11:56:11.107Z,100474.68
2017-11-03T11:57:16.960Z,100478.39
2017-11-03T11:58:23.142Z,100473.50
2017-11-03T11:59:28.249Z,100467.27
2017-11-03T12:00:33.318Z,100475.25
2017-11-03T12:01:38.742Z,100472.94
2017-11-03T12:02:44.519Z,100469.83
2017-11-03T12:03:49.599Z,100470.64
2017-11-03T12:04:55.042Z,100470.22
2017-11-03T12:06:00.143Z,100474.35
2017-11-03T12:07:05.402Z,100470.77
2017-11-03T12:08:10.490Z,100473.48
2017-11-03T12:09:15.908Z,100473.23
2017-11-03T12:10:21.773Z,100472.36
2017-11-03T12:11:26.840Z,100471.09
2017-11-03T12:12:32.269Z,100464.73
2017-11-03T12:13:37.349Z,100467.72
2017-11-03T12:14:42.434Z,100471.20
2017-11-03T12:15:47.546Z,100472.04
2017-11-03T12:16:52.623Z,100471.27
2017-11-03T12:17:58.388Z,100464.79
2017-11-03T12:19:03.470Z,100467.59
2017-11-03T12:20:09.304Z,100464.98
2017-11-03T12:21:14.752Z,100462.45
2017-11-03T12:22:21.528Z,100466.06
2017-11-03T12:23:27.708Z,100465.43
2017-11-03T12:24:32.528Z,100460.45
2017-11-03T12:25:37.950Z,100461.02
2017-11-03T12:26:43.040Z,100454.00
2017-11-03T12:27:49.236Z,100459.61
2017-11-03T12:28:54.645Z,100454.53
2017-11-03T12:29:59.744Z,100457.56
2017-11-03T12:31:05.423Z,100458.43
2017-11-03T12:32:10.503Z,100457.83